Time;durP1;ratioP1;P1;durP2;ratioP2;P2;SDS_P1;SDS_P2;PMS_P1;PMS_P2;Temp;Humidity;BMP_temperature;BMP_pressure;BME280_temperature;BME280_humidity;BME280_pressure;Samples;Min_cycle;Max_cycle;Signal;HPM_P1;HPM_P2
2023/03/28 00:01:56;;;;;;;4.13;0.73;;;3.80;99.90;;;;;;5080355;28;20043;-36
2023/03/28 00:04:22;;;;;;;6.28;0.77;;;3.90;99.90;;;;;;5076782;28;20048;-36
2023/03/28 00:06:49;;;;;;;5.28;0.70;;;3.90;99.90;;;;;;5077341;28;20052;-36
2023/03/28 00:09:15;;;;;;;7.80;1.15;;;3.90;99.90;;;;;;5075665;28;20088;-36
2023/03/28 00:11:41;;;;;;;6.93;0.80;;;3.90;99.90;;;;;;5078556;28;20197;-36
2023/03/28 00:14:07;;;;;;;6.43;1.00;;;3.90;99.90;;;;;;5054606;28;20127;-36
2023/03/28 00:16:38;;;;;;;4.60;0.57;;;3.90;99.90;;;;;;5080262;28;20416;-36
2023/03/28 00:19:08;;;;;;;6.70;1.00;;;3.90;99.90;;;;;;5074769;28;21029;-36
2023/03/28 00:21:40;;;;;;;6.22;1.02;;;3.90;99.90;;;;;;5076691;28;20060;-36
2023/03/28 00:24:09;;;;;;;7.97;0.60;;;3.90;99.90;;;;;;5079379;28;20059;-36
2023/03/28 00:26:36;;;;;;;8.25;0.65;;;3.80;99.90;;;;;;5080629;28;20143;-36
2023/03/28 00:29:03;;;;;;;8.38;1.55;;;3.80;99.90;;;;;;5081983;28;20059;-39
2023/03/28 00:31:31;;;;;;;4.80;0.60;;;3.80;99.90;;;;;;5078679;28;20052;-36
2023/03/28 00:33:57;;;;;;;6.07;0.70;;;3.70;99.90;;;;;;5082385;28;20056;-36
2023/03/28 00:36:25;;;;;;;6.53;0.45;;;3.60;99.90;;;;;;5073392;28;20051;-36
2023/03/28 00:38:54;;;;;;;3.67;0.52;;;3.60;99.90;;;;;;5079596;28;20055;-36
2023/03/28 00:41:22;;;;;;;3.78;0.52;;;3.50;99.90;;;;;;5076536;28;21543;-36
2023/03/28 00:43:51;;;;;;;2.65;0.40;;;3.40;99.90;;;;;;5078494;28;20449;-38
2023/03/28 00:46:38;;;;;;;4.60;0.88;;;3.40;99.90;;;;;;5077663;28;20044;-36
2023/03/28 00:49:12;;;;;;;4.72;0.60;;;3.30;99.90;;;;;;5073834;28;20055;-36
2023/03/28 00:51:45;;;;;;;4.90;0.60;;;3.30;99.90;;;;;;5079577;28;20451;-37
2023/03/28 00:54:17;;;;;;;3.72;0.40;;;3.30;99.90;;;;;;5076200;28;20049;-36
2023/03/28 00:56:47;;;;;;;3.38;0.50;;;3.30;99.90;;;;;;5078350;28;20055;-36
2023/03/28 00:59:17;;;;;;;7.22;0.55;;;3.30;99.90;;;;;;5076231;28;20094;-35
2023/03/28 01:01:43;;;;;;;5.10;0.43;;;3.30;99.90;;;;;;5077368;28;20048;-35
2023/03/28 01:04:09;;;;;;;5.07;0.47;;;3.30;99.90;;;;;;5074932;28;20048;-35
2023/03/28 01:06:45;;;;;;;4.38;0.52;;;3.20;99.90;;;;;;5069861;28;20045;-36
2023/03/28 01:09:12;;;;;;;5.60;1.00;;;3.20;99.90;;;;;;5074119;28;20052;-36
2023/03/28 01:11:40;;;;;;;6.13;0.60;;;3.20;99.90;;;;;;5073324;28;21697;-36
2023/03/28 01:14:07;;;;;;;4.15;0.57;;;3.10;99.90;;;;;;5072050;28;20118;-36
2023/03/28 01:16:40;;;;;;;9.77;1.40;;;3.10;99.90;;;;;;5073604;28;21220;-35
2023/03/28 01:19:11;;;;;;;6.38;0.38;;;3.00;99.90;;;;;;5077437;28;20079;-35
2023/03/28 01:21:47;;;;;;;3.97;0.55;;;3.00;99.90;;;;;;5076770;28;20054;-36
2023/03/28 01:24:49;;;;;;;7.45;0.88;;;2.90;99.90;;;;;;5079981;28;20063;-35
2023/03/28 01:27:22;;;;;;;3.40;0.50;;;2.90;99.90;;;;;;5079007;28;20425;-35
2023/03/28 01:30:09;;;;;;;5.35;1.25;;;2.90;99.90;;;;;;5079198;28;20048;-35
2023/03/28 01:33:05;;;;;;;1.48;0.30;;;2.90;99.90;;;;;;5078850;28;20104;-35
2023/03/28 01:35:51;;;;;;;6.10;0.40;;;2.90;99.90;;;;;;5073233;28;20082;-36
2023/03/28 01:38:31;;;;;;;2.03;0.35;;;2.80;99.90;;;;;;5077317;28;20067;-36
2023/03/28 01:41:37;;;;;;;6.70;0.50;;;2.80;99.90;;;;;;5080419;28;20052;-35
2023/03/28 01:44:26;;;;;;;7.55;0.30;;;2.80;99.90;;;;;;5075112;28;20078;-35
2023/03/28 01:47:06;;;;;;;5.82;1.25;;;2.90;99.90;;;;;;5077828;28;20514;-35
2023/03/28 01:49:46;;;;;;;5.50;1.02;;;2.90;99.90;;;;;;5081264;28;20039;-35
2023/03/28 01:52:33;;;;;;;4.35;0.50;;;2.90;99.90;;;;;;5075643;28;20131;-36
2023/03/28 01:55:11;;;;;;;8.02;0.50;;;2.90;99.90;;;;;;5078844;28;20498;-36
2023/03/28 01:57:44;;;;;;;3.60;0.45;;;2.80;99.90;;;;;;5074170;28;20072;-36
2023/03/28 02:00:23;;;;;;;4.40;0.47;;;2.80;99.90;;;;;;5074393;28;20055;-35
2023/03/28 02:03:17;;;;;;;8.13;0.80;;;2.80;99.90;;;;;;5076327;28;20410;-36
2023/03/28 02:05:46;;;;;;;3.10;0.52;;;2.80;99.90;;;;;;5080001;28;20087;-35
2023/03/28 02:08:14;;;;;;;3.20;0.38;;;2.80;99.90;;;;;;5074244;28;20053;-36
2023/03/28 02:10:42;;;;;;;8.18;0.73;;;2.80;99.90;;;;;;5071355;28;20130;-36
2023/03/28 02:13:17;;;;;;;5.95;0.50;;;2.70;99.90;;;;;;5077556;28;20048;-35
2023/03/28 02:15:45;;;;;;;2.05;0.40;;;2.70;99.90;;;;;;5081412;28;20051;-35
2023/03/28 02:18:19;;;;;;;5.28;0.47;;;2.60;99.90;;;;;;5072527;28;20470;-35
2023/03/28 02:20:52;;;;;;;7.90;0.85;;;2.70;99.90;;;;;;5079397;28;20052;-35
2023/03/28 02:23:25;;;;;;;4.57;0.88;;;2.60;99.90;;;;;;5078742;28;20048;-35
2023/03/28 02:25:51;;;;;;;7.80;0.60;;;2.70;99.90;;;;;;5080153;28;20163;-35
2023/03/28 02:28:18;;;;;;;4.18;0.55;;;2.60;99.90;;;;;;5078549;28;20557;-36
2023/03/28 02:30:44;;;;;;;4.22;0.65;;;2.60;99.90;;;;;;5076387;28;20147;-36
2023/03/28 02:33:40;;;;;;;7.90;0.50;;;2.60;99.90;;;;;;5079190;28;20134;-35
2023/03/28 02:36:25;;;;;;;4.82;0.80;;;2.60;99.90;;;;;;5077791;28;20451;-36
2023/03/28 02:39:00;;;;;;;2.85;0.32;;;2.60;99.90;;;;;;5077700;28;20051;-35
2023/03/28 02:41:50;;;;;;;4.93;0.45;;;2.60;99.90;;;;;;5077523;28;20478;-35
2023/03/28 02:44:42;;;;;;;4.10;0.43;;;2.60;99.90;;;;;;5075814;28;20044;-35
2023/03/28 02:47:33;;;;;;;3.58;0.50;;;2.70;99.90;;;;;;5078672;28;20052;-35
2023/03/28 02:50:20;;;;;;;6.68;0.80;;;2.60;99.90;;;;;;5046086;28;20052;-35
2023/03/28 02:53:02;;;;;;;6.90;1.40;;;2.70;99.90;;;;;;5075699;28;20632;-35
2023/03/28 02:55:55;;;;;;;4.95;0.40;;;2.70;99.90;;;;;;5078207;28;20117;-35
2023/03/28 02:58:36;;;;;;;4.97;0.28;;;2.80;99.90;;;;;;5059325;28;20490;-36
2023/03/28 03:01:05;;;;;;;6.88;0.50;;;2.80;99.90;;;;;;5077825;28;20055;-35
2023/03/28 03:03:34;;;;;;;7.70;0.90;;;2.80;99.90;;;;;;5079523;28;20401;-36
2023/03/28 03:06:00;;;;;;;5.50;0.45;;;2.90;99.90;;;;;;5071981;28;20059;-36
2023/03/28 03:08:27;;;;;;;1.50;0.38;;;2.90;99.90;;;;;;5077594;28;20044;-35
2023/03/28 03:10:53;;;;;;;6.80;0.50;;;3.00;99.90;;;;;;5079143;28;20117;-35
2023/03/28 03:13:19;;;;;;;4.03;0.50;;;3.00;99.90;;;;;;5075948;28;20080;-44
2023/03/28 03:15:45;;;;;;;2.95;0.45;;;3.00;99.90;;;;;;5077159;28;20055;-35
2023/03/28 03:18:11;;;;;;;4.18;0.55;;;3.00;99.90;;;;;;5076410;28;20059;-35
2023/03/28 03:20:39;;;;;;;1.55;0.50;;;3.00;99.90;;;;;;5073392;28;20183;-35
2023/03/28 03:23:06;;;;;;;6.40;0.55;;;3.10;99.90;;;;;;5076595;28;20051;-35
2023/03/28 03:25:33;;;;;;;4.32;0.73;;;3.00;99.90;;;;;;5077505;28;20063;-37
2023/03/28 03:27:59;;;;;;;3.13;0.40;;;3.00;99.90;;;;;;5077591;28;20071;-37
2023/03/28 03:30:26;;;;;;;4.05;0.47;;;3.00;99.90;;;;;;5075333;28;20192;-35
2023/03/28 03:32:52;;;;;;;3.97;0.40;;;2.90;99.90;;;;;;5072685;28;20393;-35
2023/03/28 03:35:19;;;;;;;7.40;0.55;;;2.80;99.90;;;;;;5074821;28;20047;-34
2023/03/28 03:37:44;;;;;;;5.07;0.57;;;2.70;99.90;;;;;;5079595;28;20047;-37
2023/03/28 03:40:10;;;;;;;5.00;0.60;;;2.60;99.90;;;;;;5078219;28;20720;-36
2023/03/28 03:42:36;;;;;;;3.13;0.57;;;2.50;99.90;;;;;;5080380;28;20405;-35
2023/03/28 03:45:03;;;;;;;1.67;0.40;;;2.40;99.90;;;;;;5076047;28;20044;-36
2023/03/28 03:47:29;;;;;;;3.15;0.65;;;2.30;99.90;;;;;;5077100;28;20095;-35
2023/03/28 03:49:54;;;;;;;5.47;0.47;;;2.30;99.90;;;;;;5062580;28;20083;-35
2023/03/28 03:52:20;;;;;;;4.95;0.52;;;2.30;99.90;;;;;;5076472;28;21494;-35
2023/03/28 03:54:46;;;;;;;3.80;0.57;;;2.20;99.90;;;;;;5075804;28;20429;-35
2023/03/28 03:57:11;;;;;;;4.25;0.43;;;2.20;99.90;;;;;;5078130;28;20067;-36
2023/03/28 03:59:37;;;;;;;4.03;0.75;;;2.10;99.90;;;;;;5077029;28;20086;-36
2023/03/28 04:02:03;;;;;;;1.10;0.50;;;2.10;99.90;;;;;;5074004;28;20056;-35
2023/03/28 04:04:29;;;;;;;3.55;0.35;;;2.10;99.90;;;;;;5074755;28;20144;-35
2023/03/28 04:06:58;;;;;;;5.18;0.60;;;2.10;99.90;;;;;;5070672;28;20136;-36
2023/03/28 04:09:26;;;;;;;4.15;0.38;;;2.10;99.90;;;;;;5076626;28;20461;-35
2023/03/28 04:11:54;;;;;;;5.25;0.40;;;2.10;99.90;;;;;;5074557;28;20056;-35
2023/03/28 04:14:20;;;;;;;11.85;0.85;;;2.10;99.90;;;;;;5076563;28;20091;-35
2023/03/28 04:16:49;;;;;;;4.93;0.50;;;2.10;99.90;;;;;;5077156;28;20063;-35
2023/03/28 04:19:16;;;;;;;4.25;0.50;;;2.10;99.90;;;;;;5075250;28;20051;-36
2023/03/28 04:21:46;;;;;;;3.60;0.60;;;2.00;99.90;;;;;;5078307;28;20063;-35
2023/03/28 04:24:16;;;;;;;3.45;0.50;;;2.00;99.90;;;;;;5073882;28;20529;-34
2023/03/28 04:26:42;;;;;;;4.82;0.55;;;2.00;99.90;;;;;;5079485;28;20130;-35
2023/03/28 04:29:09;;;;;;;5.07;0.40;;;2.00;99.90;;;;;;5078893;28;20079;-36
2023/03/28 04:31:37;;;;;;;4.28;0.30;;;2.00;99.90;;;;;;5079420;28;20055;-35
2023/03/28 04:34:07;;;;;;;5.80;0.65;;;1.90;99.90;;;;;;5075405;28;20047;-35
2023/03/28 04:36:33;;;;;;;2.40;0.60;;;1.90;99.90;;;;;;5076073;28;20488;-35
2023/03/28 04:39:01;;;;;;;3.03;0.50;;;1.90;99.90;;;;;;5071257;28;20144;-35
2023/03/28 04:41:27;;;;;;;3.63;0.40;;;1.90;99.90;;;;;;5075589;28;20048;-35
2023/03/28 04:43:53;;;;;;;3.25;0.40;;;1.90;99.90;;;;;;5074004;28;20597;-36
2023/03/28 04:46:19;;;;;;;4.88;0.38;;;1.90;99.90;;;;;;5074773;28;20063;-35
2023/03/28 04:48:46;;;;;;;6.05;1.33;;;1.80;99.90;;;;;;5075481;28;20055;-44
2023/03/28 04:51:12;;;;;;;2.13;0.63;;;1.80;99.90;;;;;;5074462;28;20040;-35
2023/03/28 04:53:37;;;;;;;2.67;0.55;;;1.80;99.90;;;;;;5075445;28;20520;-35
2023/03/28 04:56:04;;;;;;;1.38;0.32;;;1.80;99.90;;;;;;5078134;28;20036;-35
2023/03/28 04:58:31;;;;;;;4.25;0.80;;;1.70;99.90;;;;;;5058029;28;20043;-35
2023/03/28 05:00:56;;;;;;;5.38;1.65;;;1.70;99.90;;;;;;5075314;28;20077;-35
2023/03/28 05:03:23;;;;;;;3.70;0.65;;;1.70;99.90;;;;;;5070265;28;20041;-46
2023/03/28 05:05:51;;;;;;;2.47;0.47;;;1.70;99.90;;;;;;5076444;28;20040;-35
2023/03/28 05:08:19;;;;;;;3.83;0.60;;;1.70;99.90;;;;;;5075612;28;20055;-35
2023/03/28 05:10:45;;;;;;;4.00;0.65;;;1.70;99.90;;;;;;5076911;28;20486;-36
2023/03/28 05:13:12;;;;;;;3.92;0.57;;;1.60;99.90;;;;;;5078616;28;20131;-35
2023/03/28 05:15:37;;;;;;;5.50;0.50;;;1.60;99.90;;;;;;5080055;28;20537;-35
2023/03/28 05:18:04;;;;;;;3.90;0.60;;;1.60;99.90;;;;;;5077744;28;20082;-35
2023/03/28 05:20:30;;;;;;;8.13;1.23;;;1.60;99.90;;;;;;5081383;28;20140;-34
2023/03/28 05:22:56;;;;;;;2.97;0.60;;;1.60;99.90;;;;;;5079423;28;20051;-36
2023/03/28 05:25:22;;;;;;;4.82;0.80;;;1.60;99.90;;;;;;5074231;28;20063;-36
2023/03/28 05:27:49;;;;;;;2.30;0.50;;;1.50;99.90;;;;;;5082546;28;20417;-35
2023/03/28 05:30:14;;;;;;;5.13;0.63;;;1.50;99.90;;;;;;5076118;28;20058;-35
2023/03/28 05:32:40;;;;;;;2.72;0.60;;;1.50;99.90;;;;;;5076487;28;20051;-36
2023/03/28 05:35:09;;;;;;;6.38;0.90;;;1.50;99.90;;;;;;5075575;28;20052;-36
2023/03/28 05:37:35;;;;;;;6.95;0.80;;;1.50;99.90;;;;;;5078643;28;20070;-36
2023/03/28 05:40:06;;;;;;;3.90;0.65;;;1.50;99.90;;;;;;5074255;28;20044;-36
2023/03/28 05:42:37;;;;;;;7.82;1.23;;;1.40;99.90;;;;;;5072315;28;20056;-35
2023/03/28 05:45:07;;;;;;;4.45;0.75;;;1.40;99.90;;;;;;5071882;28;20079;-35
2023/03/28 05:47:33;;;;;;;4.65;0.70;;;1.50;99.90;;;;;;5077297;28;20145;-37
2023/03/28 05:49:59;;;;;;;3.92;0.80;;;1.50;99.90;;;;;;5075419;28;20048;-37
2023/03/28 05:52:25;;;;;;;5.30;1.13;;;1.50;99.90;;;;;;5075371;28;20062;-35
2023/03/28 05:54:51;;;;;;;3.25;1.02;;;1.40;99.90;;;;;;5079681;28;20052;-35
2023/03/28 05:57:17;;;;;;;4.35;1.00;;;1.50;99.90;;;;;;5080502;28;20056;-35
2023/03/28 05:59:43;;;;;;;5.53;1.08;;;1.40;99.90;;;;;;5075865;28;20056;-35
2023/03/28 06:02:12;;;;;;;5.72;1.50;;;1.40;99.90;;;;;;5075631;28;20055;-35
2023/03/28 06:04:38;;;;;;;6.32;1.63;;;1.40;99.90;;;;;;5079010;28;20493;-35
2023/03/28 06:07:05;;;;;;;5.15;1.50;;;1.30;99.90;;;;;;5073659;28;20723;-35
2023/03/28 06:09:31;;;;;;;8.57;1.80;;;1.30;99.90;;;;;;5077797;28;20048;-35
2023/03/28 06:11:57;;;;;;;7.95;2.17;;;1.30;99.90;;;;;;5076147;28;20073;-35
2023/03/28 06:14:23;;;;;;;3.92;1.27;;;1.20;99.90;;;;;;5077631;28;21972;-38
2023/03/28 06:16:48;;;;;;;7.63;1.70;;;1.20;99.90;;;;;;5076320;28;20052;-35
2023/03/28 06:19:14;;;;;;;5.15;1.63;;;1.20;99.90;;;;;;5080450;28;20408;-35
2023/03/28 06:21:40;;;;;;;6.38;1.35;;;1.10;99.90;;;;;;5077398;28;20060;-35
2023/03/28 06:24:06;;;;;;;7.30;2.22;;;1.10;99.90;;;;;;5083877;28;20044;-37
2023/03/28 06:26:31;;;;;;;9.38;1.90;;;1.10;99.90;;;;;;5077005;28;20501;-39
2023/03/28 06:28:57;;;;;;;8.40;1.70;;;1.20;99.90;;;;;;5076278;28;20044;-37
2023/03/28 06:31:23;;;;;;;6.13;2.00;;;1.20;99.90;;;;;;5076436;28;20047;-37
2023/03/28 06:33:49;;;;;;;5.50;1.95;;;1.30;99.90;;;;;;5060741;28;20064;-38
2023/03/28 06:36:14;;;;;;;6.45;1.52;;;1.30;99.90;;;;;;5079910;28;20051;-37
2023/03/28 06:38:40;;;;;;;3.95;1.52;;;1.30;99.90;;;;;;5076376;28;20054;-38
2023/03/28 06:41:06;;;;;;;7.35;1.52;;;1.30;99.90;;;;;;5081937;28;20053;-38
2023/03/28 06:43:32;;;;;;;5.03;1.35;;;1.40;99.90;;;;;;5076790;28;20080;-36
2023/03/28 06:45:57;;;;;;;5.63;1.90;;;1.40;99.90;;;;;;5082055;28;20067;-38
2023/03/28 06:48:29;;;;;;;7.93;1.60;;;1.40;99.90;;;;;;5077650;28;20074;-38
2023/03/28 06:50:55;;;;;;;6.78;1.90;;;1.50;99.90;;;;;;5062898;28;20068;-39
2023/03/28 06:53:21;;;;;;;10.10;1.80;;;1.50;99.90;;;;;;5081234;28;20068;-37
2023/03/28 06:55:49;;;;;;;5.43;1.30;;;1.50;99.90;;;;;;5083068;28;20504;-39
2023/03/28 06:58:15;;;;;;;5.35;1.33;;;1.60;99.90;;;;;;5078157;28;20049;-38
2023/03/28 07:00:41;;;;;;;7.80;1.67;;;1.70;99.90;;;;;;5075937;28;20442;-38
2023/03/28 07:03:07;;;;;;;8.88;1.67;;;1.80;99.90;;;;;;5081871;28;20493;-38
2023/03/28 07:05:38;;;;;;;3.90;1.55;;;1.80;99.90;;;;;;5079398;28;20060;-40
2023/03/28 07:08:05;;;;;;;5.75;1.73;;;1.90;99.90;;;;;;5078488;28;20071;-39
2023/03/28 07:10:30;;;;;;;9.10;1.90;;;2.00;99.90;;;;;;5083211;28;20086;-38
2023/03/28 07:12:56;;;;;;;9.48;1.65;;;2.10;99.90;;;;;;5077181;28;20523;-38
2023/03/28 07:15:22;;;;;;;4.68;1.20;;;2.20;99.90;;;;;;5078115;28;20040;-38
2023/03/28 07:17:47;;;;;;;6.10;1.58;;;2.40;99.90;;;;;;5082938;28;20043;-38
2023/03/28 07:20:13;;;;;;;4.60;1.70;;;2.50;99.90;;;;;;5081784;28;20421;-38
2023/03/28 07:22:39;;;;;;;5.45;1.33;;;2.50;99.90;;;;;;5077808;28;20061;-39
2023/03/28 07:25:06;;;;;;;5.88;1.42;;;2.60;99.90;;;;;;5083512;28;20168;-38
2023/03/28 07:27:32;;;;;;;10.80;3.05;;;2.80;99.90;;;;;;5077526;28;20181;-39
2023/03/28 07:29:58;;;;;;;4.80;1.30;;;2.90;99.90;;;;;;5070871;28;20044;-41
2023/03/28 07:32:24;;;;;;;5.80;1.20;;;3.00;99.90;;;;;;5077523;28;20052;-40
2023/03/28 07:34:49;;;;;;;4.97;1.27;;;3.10;99.90;;;;;;5080934;28;20051;-40
2023/03/28 07:37:15;;;;;;;3.40;0.88;;;3.10;99.90;;;;;;5063135;28;21843;-40
2023/03/28 07:39:42;;;;;;;4.55;0.98;;;3.20;99.90;;;;;;5079700;28;20051;-40
2023/03/28 07:42:12;;;;;;;4.55;1.25;;;3.30;99.90;;;;;;5057666;28;20040;-40
2023/03/28 07:44:38;;;;;;;5.32;1.23;;;3.40;99.90;;;;;;5075220;28;20805;-41
2023/03/28 07:47:03;;;;;;;5.38;2.22;;;3.50;99.90;;;;;;5076837;28;20059;-41
2023/03/28 07:49:29;;;;;;;8.45;1.75;;;3.70;99.90;;;;;;5080361;28;20052;-40
2023/03/28 07:51:55;;;;;;;5.07;0.90;;;3.80;99.90;;;;;;5074065;28;20056;-40
2023/03/28 07:54:23;;;;;;;4.85;1.05;;;3.90;99.90;;;;;;5078385;28;20047;-41
2023/03/28 07:56:49;;;;;;;7.45;1.23;;;4.00;99.90;;;;;;5058196;28;20048;-40
2023/03/28 07:59:15;;;;;;;7.10;1.35;;;4.00;99.90;;;;;;5076533;28;20059;-40
2023/03/28 08:01:42;;;;;;;6.35;0.93;;;4.10;99.90;;;;;;5074604;28;20127;-40
2023/03/28 08:04:10;;;;;;;9.48;1.30;;;4.30;99.90;;;;;;5074909;28;20481;-42
2023/03/28 08:06:37;;;;;;;4.35;1.15;;;4.30;99.90;;;;;;5077247;28;20048;-41
2023/03/28 08:09:12;;;;;;;7.72;0.95;;;4.40;99.90;;;;;;5061040;28;20040;-41
2023/03/28 08:11:38;;;;;;;4.05;1.15;;;4.50;99.90;;;;;;5076278;28;20079;-42
2023/03/28 08:14:08;;;;;;;5.07;1.10;;;4.70;99.90;;;;;;5072371;28;20051;-40
2023/03/28 08:16:34;;;;;;;5.10;0.70;;;4.80;99.90;;;;;;5076883;28;20048;-38
2023/03/28 08:18:59;;;;;;;4.60;0.70;;;5.00;99.90;;;;;;5078546;28;20132;-40
2023/03/28 08:21:26;;;;;;;3.42;0.57;;;5.20;99.90;;;;;;5079365;28;20466;-40
2023/03/28 08:23:52;;;;;;;3.95;1.15;;;5.30;99.90;;;;;;5057734;28;20500;-41
2023/03/28 08:26:18;;;;;;;3.53;0.80;;;5.50;99.90;;;;;;5060224;28;20044;-41
2023/03/28 08:28:44;;;;;;;4.68;0.70;;;5.60;99.90;;;;;;5077625;28;20102;-47
2023/03/28 08:31:15;;;;;;;2.13;0.70;;;5.70;99.90;;;;;;5079984;28;20178;-39
2023/03/28 08:33:47;;;;;;;6.30;0.68;;;5.80;99.90;;;;;;5051485;28;20048;-40
2023/03/28 08:36:13;;;;;;;3.42;0.80;;;5.90;99.90;;;;;;5078334;28;20051;-41
2023/03/28 08:38:43;;;;;;;4.15;0.60;;;5.90;99.90;;;;;;5079831;28;20106;-41
2023/03/28 08:41:15;;;;;;;4.82;0.40;;;6.00;99.90;;;;;;5075964;28;20097;-40
2023/03/28 08:44:06;;;;;;;1.98;0.60;;;6.10;99.90;;;;;;5071986;28;20052;-42
2023/03/28 08:46:34;;;;;;;2.03;0.50;;;6.10;99.90;;;;;;5072078;28;20189;-40
2023/03/28 08:49:06;;;;;;;5.20;0.90;;;6.10;99.90;;;;;;5082661;28;20048;-40
2023/03/28 08:51:39;;;;;;;4.25;0.68;;;6.10;99.90;;;;;;5079599;28;20505;-40
2023/03/28 08:54:18;;;;;;;4.05;0.90;;;6.10;99.90;;;;;;5083521;28;20409;-40
2023/03/28 08:56:52;;;;;;;3.67;0.77;;;6.10;99.90;;;;;;5067690;28;20056;-36
2023/03/28 08:59:32;;;;;;;4.40;0.88;;;6.20;99.90;;;;;;5078280;28;20040;-35
2023/03/28 09:01:58;;;;;;;4.55;0.77;;;6.20;99.90;;;;;;5080570;28;20079;-36
2023/03/28 09:04:34;;;;;;;5.60;0.80;;;6.20;99.90;;;;;;5086806;28;20072;-35
2023/03/28 09:07:12;;;;;;;5.40;1.27;;;6.40;99.90;;;;;;5060235;28;20140;-36
2023/03/28 09:09:59;;;;;;;3.08;0.93;;;6.50;99.90;;;;;;5079942;28;20525;-39
2023/03/28 09:12:43;;;;;;;6.18;0.70;;;6.60;99.90;;;;;;5081015;28;20051;-39
2023/03/28 09:15:40;;;;;;;5.18;0.73;;;6.70;99.90;;;;;;5078131;28;20639;-38
2023/03/28 09:18:21;;;;;;;2.40;0.50;;;6.90;99.90;;;;;;5076627;28;20052;-35
2023/03/28 09:21:12;;;;;;;1.63;0.50;;;7.00;99.90;;;;;;5076659;28;20058;-36
2023/03/28 09:24:05;;;;;;;3.50;0.50;;;7.10;99.90;;;;;;5082629;28;20070;-36
2023/03/28 09:26:36;;;;;;;1.40;0.30;;;7.20;99.90;;;;;;5082509;28;20527;-36
2023/03/28 09:29:11;;;;;;;3.40;0.97;;;7.30;99.90;;;;;;5080526;28;20048;-35
2023/03/28 09:31:44;;;;;;;2.28;0.43;;;7.30;99.90;;;;;;5082651;28;20429;-38
2023/03/28 09:34:17;;;;;;;;;;;7.30;99.90;;;;;;5064037;28;20059;-39
2023/03/28 09:36:44;;;;;;;7.22;0.50;;;7.20;99.90;;;;;;5076533;28;19920;-38
2023/03/28 09:39:26;;;;;;;4.22;0.50;;;7.20;99.90;;;;;;5086503;28;20476;-39
2023/03/28 09:42:13;;;;;;;3.25;0.50;;;7.30;99.90;;;;;;5079134;28;20056;-38
2023/03/28 09:44:58;;;;;;;7.82;0.70;;;7.30;99.90;;;;;;5080516;28;20130;-38
2023/03/28 09:47:25;;;;;;;2.15;0.70;;;7.40;99.90;;;;;;5082003;28;20102;-38
2023/03/28 09:49:50;;;;;;;4.47;0.63;;;7.40;99.90;;;;;;5084631;28;20055;-38
2023/03/28 09:52:20;;;;;;;1.58;0.50;;;7.40;99.90;;;;;;5087117;28;20409;-38
2023/03/28 09:54:47;;;;;;;3.05;0.47;;;7.40;99.90;;;;;;5079967;28;20137;-38
2023/03/28 09:57:12;;;;;;;4.57;0.57;;;7.40;99.90;;;;;;5078847;28;20052;-38
2023/03/28 09:59:38;;;;;;;4.93;0.80;;;7.40;99.90;;;;;;5077092;28;20465;-38
2023/03/28 10:02:21;;;;;;;6.15;0.70;;;7.40;99.90;;;;;;5084546;28;20052;-40
2023/03/28 10:04:47;;;;;;;7.93;0.88;;;7.40;99.90;;;;;;5085267;28;20417;-38
2023/03/28 10:07:13;;;;;;;4.78;0.68;;;7.40;99.90;;;;;;5081938;28;20055;-39
2023/03/28 10:09:59;;;;;;;2.65;0.98;;;7.40;99.90;;;;;;5084625;28;20587;-38
2023/03/28 10:12:33;;;;;;;5.72;1.55;;;7.40;99.90;;;;;;5082017;28;20127;-41
2023/03/28 10:14:59;;;;;;;1.50;0.70;;;7.40;99.90;;;;;;5082346;28;20052;-42
2023/03/28 10:17:36;;;;;;;3.50;0.75;;;7.40;99.90;;;;;;5080093;28;20063;-42
2023/03/28 10:20:18;;;;;;;3.83;0.77;;;7.50;99.90;;;;;;5073578;28;20146;-42
2023/03/28 10:22:47;;;;;;;4.53;0.98;;;7.60;99.90;;;;;;5067113;28;20063;-42
2023/03/28 10:25:19;;;;;;;2.70;0.63;;;7.60;99.90;;;;;;5075081;28;20055;-42
2023/03/28 10:27:46;;;;;;;4.05;1.17;;;7.60;99.90;;;;;;5075364;28;20059;-38
2023/03/28 10:30:30;;;;;;;5.18;1.67;;;7.60;99.90;;;;;;5080956;28;20493;-43
2023/03/28 10:33:23;;;;;;;3.55;0.68;;;7.60;99.90;;;;;;5077809;28;20052;-41
2023/03/28 10:36:01;;;;;;;4.50;0.90;;;7.70;99.90;;;;;;5080838;28;20557;-42
2023/03/28 10:38:50;;;;;;;5.45;0.90;;;7.70;99.90;;;;;;5061302;28;20055;-41
2023/03/28 10:41:24;;;;;;;2.88;1.15;;;7.70;99.90;;;;;;5079512;28;20105;-41
2023/03/28 10:43:51;;;;;;;4.22;1.15;;;7.70;99.90;;;;;;5078274;28;20047;-40
2023/03/28 10:46:29;;;;;;;3.88;1.17;;;7.70;99.90;;;;;;5077578;28;21239;-40
2023/03/28 10:49:11;;;;;;;1.67;0.63;;;7.80;99.90;;;;;;5075328;28;20559;-40
2023/03/28 10:51:39;;;;;;;3.72;1.23;;;7.80;99.90;;;;;;5082323;28;20059;-41
2023/03/28 10:54:19;;;;;;;5.03;1.35;;;7.80;99.90;;;;;;5059278;28;20189;-39
2023/03/28 10:56:54;;;;;;;3.75;1.10;;;7.90;99.90;;;;;;5078489;28;20139;-40
2023/03/28 10:59:41;;;;;;;3.80;1.30;;;8.00;99.90;;;;;;5077268;28;20056;-44
2023/03/28 11:02:43;;;;;;;3.65;1.40;;;8.00;99.90;;;;;;5081700;28;20051;-42
2023/03/28 11:05:40;;;;;;;3.35;1.20;;;8.00;99.90;;;;;;5079971;28;20052;-41
2023/03/28 11:08:08;;;;;;;3.65;1.20;;;8.20;99.90;;;;;;5077309;28;20080;-40
2023/03/28 11:10:58;;;;;;;9.02;1.08;;;8.30;99.90;;;;;;5077825;28;20583;-41
2023/03/28 11:13:35;;;;;;;5.88;1.30;;;8.40;99.90;;;;;;5065685;28;20602;-40
2023/03/28 11:16:20;;;;;;;5.50;1.15;;;8.40;99.90;;;;;;5079925;28;20048;-44
2023/03/28 11:19:14;;;;;;;4.03;0.80;;;8.40;99.90;;;;;;5085726;28;20043;-40
2023/03/28 11:22:11;;;;;;;3.80;0.80;;;8.50;99.90;;;;;;5076892;28;20575;-40
2023/03/28 11:25:18;;;;;;;3.85;1.05;;;8.70;99.90;;;;;;5062588;28;20116;-40
2023/03/28 11:28:21;;;;;;;4.05;1.33;;;8.90;99.90;;;;;;5033016;28;20074;-45
2023/03/28 11:30:53;;;;;;;4.07;0.90;;;9.00;99.90;;;;;;4995682;28;20598;-42
2023/03/28 11:33:45;;;;;;;2.28;0.80;;;9.10;99.90;;;;;;5068903;28;20040;-41
2023/03/28 11:36:20;;;;;;;2.03;0.68;;;9.00;99.90;;;;;;5080761;28;20117;-36
2023/03/28 11:39:01;;;;;;;3.92;0.80;;;9.10;99.90;;;;;;5082608;28;20055;-36
2023/03/28 11:41:32;;;;;;;5.07;1.15;;;9.20;99.90;;;;;;5074364;28;20525;-36
2023/03/28 11:44:22;;;;;;;5.47;1.10;;;9.20;99.90;;;;;;5079943;28;20493;-36
2023/03/28 11:46:55;;;;;;;4.22;1.23;;;9.10;99.90;;;;;;5076731;28;20079;-36
2023/03/28 11:49:37;;;;;;;4.78;1.15;;;9.00;99.90;;;;;;5075358;28;20097;-36
2023/03/28 11:52:27;;;;;;;3.00;0.90;;;9.10;99.90;;;;;;5077709;28;20047;-36
2023/03/28 11:55:11;;;;;;;8.95;1.45;;;9.10;99.90;;;;;;5075277;28;20047;-36
2023/03/28 11:57:55;;;;;;;6.00;1.15;;;9.10;99.90;;;;;;5080375;28;20048;-37
2023/03/28 12:00:40;;;;;;;5.70;1.40;;;9.20;99.90;;;;;;5079273;28;20044;-37
2023/03/28 12:03:28;;;;;;;2.83;0.88;;;9.20;99.90;;;;;;5073642;28;20051;-37
2023/03/28 12:06:02;;;;;;;4.05;1.15;;;9.30;99.90;;;;;;5078734;28;20048;-36
2023/03/28 12:09:07;;;;;;;6.97;0.90;;;9.40;99.90;;;;;;5079374;28;20064;-36
2023/03/28 12:11:38;;;;;;;6.25;1.60;;;9.50;99.90;;;;;;5056150;28;20060;-36
2023/03/28 12:14:22;;;;;;;3.72;1.10;;;9.50;99.90;;;;;;5077127;28;20497;-37
2023/03/28 12:16:51;;;;;;;3.80;1.10;;;9.40;99.90;;;;;;5078589;28;20052;-36
2023/03/28 12:19:31;;;;;;;7.35;1.42;;;9.40;99.90;;;;;;5072388;28;20047;-36
2023/03/28 12:22:08;;;;;;;3.72;1.13;;;9.40;99.90;;;;;;5079771;28;20398;-36
2023/03/28 12:24:45;;;;;;;4.40;0.95;;;9.30;99.90;;;;;;5076556;28;20109;-36
2023/03/28 12:27:26;;;;;;;5.03;1.08;;;9.20;99.90;;;;;;5074897;28;20060;-36
2023/03/28 12:30:23;;;;;;;4.00;0.95;;;9.20;99.90;;;;;;5059826;28;20122;-36
2023/03/28 12:33:07;;;;;;;2.65;1.10;;;9.10;99.90;;;;;;5075982;28;20121;-36
2023/03/28 12:35:48;;;;;;;3.10;0.98;;;9.10;99.90;;;;;;5073232;28;20074;-36
2023/03/28 12:38:31;;;;;;;1.92;0.90;;;9.10;99.90;;;;;;5080062;28;20628;-36
2023/03/28 12:40:59;;;;;;;;;;;9.20;99.90;;;;;;5081305;28;20457;-36
2023/03/28 12:43:51;;;;;;;4.13;1.10;;;9.30;99.90;;;;;;5079101;28;19993;-37
2023/03/28 12:46:44;;;;;;;7.03;1.20;;;9.40;99.90;;;;;;5078762;28;20055;-36
2023/03/28 12:49:20;;;;;;;9.63;1.50;;;9.60;99.90;;;;;;5072663;28;20067;-36
2023/03/28 12:51:53;;;;;;;3.25;1.00;;;9.60;99.90;;;;;;5075425;28;20044;-36
2023/03/28 12:54:26;;;;;;;3.10;0.80;;;9.70;99.90;;;;;;5073856;28;20680;-36
2023/03/28 12:57:07;;;;;;;4.55;1.08;;;9.80;99.90;;;;;;5072375;28;20493;-36
2023/03/28 12:59:38;;;;;;;6.07;1.50;;;9.90;99.90;;;;;;5076348;28;20068;-36
2023/03/28 13:02:17;;;;;;;2.40;1.05;;;10.10;99.90;;;;;;5076088;28;20056;-36
2023/03/28 13:04:56;;;;;;;5.32;1.00;;;10.30;99.90;;;;;;5073028;28;20513;-36
2023/03/28 13:07:38;;;;;;;4.72;1.10;;;10.40;99.90;;;;;;5072622;28;20080;-36
2023/03/28 13:10:31;;;;;;;6.07;1.00;;;10.50;99.90;;;;;;5077479;28;20044;-36
2023/03/28 13:13:37;;;;;;;3.65;1.27;;;10.40;99.90;;;;;;5073707;28;20110;-43
2023/03/28 13:16:25;;;;;;;5.32;1.60;;;10.30;99.90;;;;;;5069326;28;20126;-41
2023/03/28 13:19:07;;;;;;;3.88;1.20;;;10.40;99.90;;;;;;5073433;28;20052;-41
2023/03/28 13:21:41;;;;;;;3.40;1.25;;;10.40;99.90;;;;;;5075929;28;20066;-41
2023/03/28 13:24:25;;;;;;;6.53;1.45;;;10.50;99.90;;;;;;5071814;28;20506;-40
2023/03/28 13:26:55;;;;;;;3.50;1.13;;;10.50;99.90;;;;;;5065697;28;20106;-41
2023/03/28 13:29:23;;;;;;;3.13;1.45;;;10.60;99.90;;;;;;5072298;28;20673;-42